createdAt,value
2019-06-20T00:00:54.396Z,48.42
2019-06-20T00:02:58.157Z,48.27
2019-06-20T00:05:02.045Z,48.11
2019-06-20T00:07:05.940Z,47.91
2019-06-20T00:09:09.900Z,47.84
2019-06-20T00:11:14.837Z,47.96
2019-06-20T00:13:18.741Z,48.32
2019-06-20T00:15:22.725Z,48.66
2019-06-20T00:17:26.468Z,48.86
2019-06-20T00:19:30.380Z,49.13
2019-06-20T00:21:34.266Z,49.33
2019-06-20T00:23:38.181Z,49.54
2019-06-20T00:25:42.092Z,49.68
2019-06-20T00:27:46.458Z,49.78
2019-06-20T00:29:50.334Z,49.81
2019-06-20T00:31:54.238Z,49.79
2019-06-20T00:33:58.102Z,49.87
2019-06-20T00:36:02.030Z,49.86
2019-06-20T00:38:09.137Z,49.77
2019-06-20T00:40:13.653Z,49.97
2019-06-20T00:42:17.402Z,50.60
2019-06-20T00:44:21.312Z,50.77
2019-06-20T00:46:25.239Z,50.86
2019-06-20T00:48:29.139Z,51.14
2019-06-20T00:50:33.108Z,51.26
2019-06-20T00:52:36.948Z,49.86
2019-06-20T00:54:40.925Z,49.26
2019-06-20T00:56:44.760Z,49.72
2019-06-20T00:58:48.565Z,49.53
2019-06-20T01:00:52.384Z,49.07
2019-06-20T01:02:56.152Z,49.05
2019-06-20T01:04:59.976Z,49.05
2019-06-20T01:07:03.882Z,49.47
2019-06-20T01:09:08.602Z,50.05
2019-06-20T01:11:12.568Z,50.57
2019-06-20T01:13:32.258Z,51.14
2019-06-20T01:15:22.282Z,51.60
2019-06-20T01:17:26.035Z,52.01
2019-06-20T01:19:30.035Z,52.23
2019-06-20T01:21:33.880Z,52.62
2019-06-20T01:23:37.835Z,53.29
2019-06-20T01:25:43.194Z,53.92
2019-06-20T01:27:46.994Z,54.05
2019-06-20T01:29:50.897Z,54.04
2019-06-20T01:31:54.885Z,54.20
2019-06-20T01:33:58.707Z,54.28
2019-06-20T01:36:05.116Z,54.37
2019-06-20T01:38:08.987Z,54.62
2019-06-20T01:40:13.046Z,55.01
2019-06-20T01:42:16.877Z,55.40
2019-06-20T01:44:20.685Z,55.66
2019-06-20T01:46:24.652Z,55.96
2019-06-20T01:48:28.570Z,56.34
2019-06-20T01:50:32.423Z,56.86
2019-06-20T01:52:36.328Z,58.03
2019-06-20T01:54:40.351Z,59.20
2019-06-20T01:56:44.121Z,60.35
2019-06-20T01:58:48.092Z,61.13
2019-06-20T02:00:52.188Z,62.15
2019-06-20T02:02:56.048Z,63.19
2019-06-20T02:04:59.963Z,64.56
2019-06-20T02:07:04.062Z,65.29
2019-06-20T02:09:08.941Z,65.12
2019-06-20T02:11:12.698Z,65.07
2019-06-20T02:13:16.579Z,65.93
2019-06-20T02:15:20.686Z,67.36
2019-06-20T02:17:24.605Z,68.63
2019-06-20T02:19:28.491Z,69.42
2019-06-20T02:21:32.485Z,69.12
2019-06-20T02:23:36.336Z,69.37
2019-06-20T02:25:40.232Z,69.95
2019-06-20T02:27:44.189Z,70.30
2019-06-20T02:29:48.088Z,71.04
2019-06-20T02:31:52.016Z,71.43
2019-06-20T02:33:55.830Z,72.55
2019-06-20T02:35:59.732Z,73.65
2019-06-20T02:38:03.782Z,75.35
2019-06-20T02:40:07.715Z,76.07
2019-06-20T02:42:11.454Z,78.90
2019-06-20T02:44:29.895Z,78.90
2019-06-20T02:46:23.641Z,80.62
2019-06-20T02:48:27.473Z,80.62
2019-06-20T02:50:31.525Z,80.50
2019-06-20T02:52:35.434Z,80.85
2019-06-20T02:54:39.247Z,81.54
2019-06-20T02:56:43.093Z,80.94
2019-06-20T02:58:47.033Z,81.61
2019-06-20T03:00:57.183Z,81.61
2019-06-20T03:03:00.956Z,81.67
2019-06-20T03:05:05.307Z,81.68
2019-06-20T03:07:09.183Z,81.73
2019-06-20T03:09:13.062Z,82.00
2019-06-20T03:11:16.971Z,82.13
2019-06-20T03:13:20.938Z,81.94
2019-06-20T03:15:25.798Z,81.98
2019-06-20T03:17:29.792Z,81.96
2019-06-20T03:19:33.609Z,82.05
2019-06-20T03:21:37.565Z,81.94
2019-06-20T03:23:41.485Z,81.93
2019-06-20T03:25:45.393Z,81.88
2019-06-20T03:27:49.247Z,81.83
2019-06-20T03:29:53.141Z,81.59
2019-06-20T03:31:57.113Z,82.13
2019-06-20T03:34:00.961Z,81.48
2019-06-20T03:36:04.996Z,81.33
2019-06-20T03:38:08.836Z,81.22
2019-06-20T03:40:13.015Z,80.69
2019-06-20T03:42:16.776Z,80.45
2019-06-20T03:44:20.688Z,80.22
2019-06-20T03:46:24.580Z,80.36
2019-06-20T03:48:28.546Z,80.31
2019-06-20T03:50:32.631Z,80.14
2019-06-20T03:52:38.229Z,80.24
2019-06-20T03:54:42.045Z,80.29
2019-06-20T03:56:45.946Z,80.50
2019-06-20T03:58:49.833Z,80.65
2019-06-20T04:00:53.779Z,80.28
2019-06-20T04:02:57.707Z,80.41
2019-06-20T04:05:01.425Z,80.73
2019-06-20T04:07:05.355Z,80.90
2019-06-20T04:09:09.226Z,80.25
2019-06-20T04:11:13.149Z,80.39
2019-06-20T04:13:17.097Z,80.48
2019-06-20T04:15:20.959Z,80.45
2019-06-20T04:17:24.784Z,80.34
2019-06-20T04:19:28.676Z,80.58
2019-06-20T04:21:32.582Z,79.88
2019-06-20T04:23:36.507Z,79.77
2019-06-20T04:25:40.384Z,80.28
2019-06-20T04:27:44.318Z,80.28
2019-06-20T04:29:48.191Z,80.24
2019-06-20T04:31:52.131Z,80.26
2019-06-20T04:33:56.004Z,80.94
2019-06-20T04:35:59.937Z,80.83
2019-06-20T04:38:03.873Z,80.33
2019-06-20T04:40:08.161Z,80.22
2019-06-20T04:42:12.058Z,80.10
2019-06-20T04:44:15.964Z,80.34
2019-06-20T04:46:31.611Z,80.15
2019-06-20T04:48:35.727Z,80.34
2019-06-20T04:50:39.544Z,80.48
2019-06-20T04:52:43.442Z,80.58
2019-06-20T04:54:47.354Z,80.70
2019-06-20T04:56:51.244Z,80.98
2019-06-20T04:58:55.254Z,81.08
2019-06-20T05:01:02.553Z,81.09
2019-06-20T05:03:06.247Z,81.08
2019-06-20T05:05:10.433Z,81.14
2019-06-20T05:07:18.930Z,81.13
2019-06-20T05:09:22.669Z,81.12
2019-06-20T05:11:27.533Z,81.26
2019-06-20T05:13:31.473Z,81.20
2019-06-20T05:15:51.113Z,81.22
2019-06-20T05:17:41.166Z,81.13
2019-06-20T05:19:45.051Z,80.96
2019-06-20T05:21:48.956Z,81.03
2019-06-20T05:23:52.856Z,81.15
2019-06-20T05:25:56.787Z,81.06
2019-06-20T05:28:00.682Z,80.96
2019-06-20T05:30:05.621Z,80.92
2019-06-20T05:32:09.521Z,80.78
2019-06-20T05:34:13.425Z,80.60
2019-06-20T05:36:17.405Z,80.30
2019-06-20T05:38:21.233Z,79.70
2019-06-20T05:40:25.278Z,79.37
2019-06-20T05:42:29.024Z,79.15
2019-06-20T05:44:33.037Z,78.61
2019-06-20T05:46:36.824Z,78.27
2019-06-20T05:48:40.738Z,78.04
2019-06-20T05:50:44.714Z,77.84
2019-06-20T05:52:48.590Z,77.69
2019-06-20T05:54:52.577Z,77.53
2019-06-20T05:56:56.387Z,77.65
2019-06-20T05:59:00.123Z,77.82
2019-06-20T06:01:04.056Z,78.07
2019-06-20T06:03:07.939Z,77.64
2019-06-20T06:05:13.406Z,77.64
2019-06-20T06:07:17.128Z,76.61
2019-06-20T06:09:24.733Z,76.32
2019-06-20T06:11:28.592Z,75.42
2019-06-20T06:13:32.513Z,75.49
2019-06-20T06:15:36.424Z,76.07
2019-06-20T06:17:40.319Z,75.89
2019-06-20T06:19:44.642Z,76.18
2019-06-20T06:21:48.524Z,76.14
2019-06-20T06:23:52.483Z,76.23
2019-06-20T06:25:57.527Z,76.29
2019-06-20T06:28:01.281Z,76.25
2019-06-20T06:30:07.089Z,75.16
2019-06-20T06:32:11.078Z,75.34
2019-06-20T06:34:14.927Z,74.42
2019-06-20T06:36:18.817Z,74.37
2019-06-20T06:38:22.651Z,73.80
2019-06-20T06:40:27.686Z,73.84
2019-06-20T06:42:31.480Z,73.63
2019-06-20T06:44:35.387Z,73.60
2019-06-20T06:46:45.862Z,74.09
2019-06-20T06:48:44.969Z,74.03
2019-06-20T06:50:48.836Z,73.86
2019-06-20T06:52:52.624Z,73.40
2019-06-20T06:54:56.574Z,73.55
2019-06-20T06:57:00.452Z,73.45
2019-06-20T06:59:04.498Z,73.26
2019-06-20T07:01:10.289Z,73.50
2019-06-20T07:03:14.036Z,73.68
2019-06-20T07:05:18.158Z,73.88
2019-06-20T07:07:22.020Z,74.06
2019-06-20T07:09:25.930Z,73.85
2019-06-20T07:11:29.990Z,73.74
2019-06-20T07:13:33.744Z,73.91
2019-06-20T07:15:37.779Z,72.80
2019-06-20T07:17:43.041Z,72.34
2019-06-20T07:19:46.918Z,72.45
2019-06-20T07:21:50.801Z,72.82
2019-06-20T07:23:54.695Z,72.75
2019-06-20T07:25:58.669Z,72.79
2019-06-20T07:28:06.109Z,73.08
2019-06-20T07:30:11.076Z,73.24
2019-06-20T07:32:15.028Z,73.21
2019-06-20T07:34:18.992Z,73.02
2019-06-20T07:36:22.825Z,73.16
2019-06-20T07:38:26.718Z,72.47
2019-06-20T07:40:30.722Z,72.51
2019-06-20T07:42:34.525Z,72.52
2019-06-20T07:44:38.460Z,72.46
2019-06-20T07:46:42.419Z,72.24
2019-06-20T07:48:46.261Z,71.86
2019-06-20T07:50:50.162Z,71.68
2019-06-20T07:53:02.046Z,71.43
2019-06-20T07:54:59.619Z,71.55
2019-06-20T07:57:03.523Z,71.62
2019-06-20T07:59:07.496Z,71.50
2019-06-20T08:01:11.474Z,71.11
2019-06-20T08:03:15.200Z,70.79
2019-06-20T08:05:20.465Z,70.90
2019-06-20T08:07:24.270Z,70.50
2019-06-20T08:09:43.838Z,70.56
2019-06-20T08:11:33.783Z,70.67
2019-06-20T08:13:37.598Z,70.68
2019-06-20T08:17:41.297Z,70.22
2019-06-20T08:19:45.246Z,69.82
2019-06-20T08:21:49.136Z,69.65
2019-06-20T08:23:53.044Z,69.80
2019-06-20T08:25:58.822Z,69.66
2019-06-20T08:28:04.277Z,69.36
2019-06-20T08:30:08.584Z,68.80
2019-06-20T08:32:12.595Z,68.18
2019-06-20T08:34:16.661Z,67.91
2019-06-20T08:36:20.469Z,67.83
2019-06-20T08:38:24.347Z,67.66
2019-06-20T08:40:29.214Z,67.69
2019-06-20T08:42:32.933Z,67.67
2019-06-20T08:44:36.847Z,67.22
2019-06-20T08:46:40.734Z,67.01
2019-06-20T08:48:44.607Z,67.47
2019-06-20T08:50:48.417Z,67.01
2019-06-20T08:52:52.348Z,66.97
2019-06-20T08:54:56.656Z,66.02
2019-06-20T08:57:01.574Z,65.31
2019-06-20T08:59:05.995Z,65.12
2019-06-20T09:01:09.827Z,64.37
2019-06-20T09:03:13.659Z,64.13
2019-06-20T09:05:17.821Z,64.42
2019-06-20T09:07:21.579Z,64.14
2019-06-20T09:09:25.570Z,64.12
2019-06-20T09:11:29.267Z,63.85
2019-06-20T09:13:33.118Z,64.15
2019-06-20T09:15:37.245Z,64.33
2019-06-20T09:17:41.023Z,64.38
2019-06-20T09:19:44.823Z,63.55
2019-06-20T09:21:48.721Z,62.89
2019-06-20T09:23:54.121Z,63.08
2019-06-20T09:25:57.974Z,63.17
2019-06-20T09:28:02.650Z,62.42
2019-06-20T09:30:07.007Z,61.97
2019-06-20T09:32:10.860Z,61.70
2019-06-20T09:34:14.823Z,61.68
2019-06-20T09:36:18.722Z,61.30
2019-06-20T09:38:23.751Z,60.10
2019-06-20T09:40:27.776Z,59.38
2019-06-20T09:42:32.732Z,59.42
2019-06-20T09:44:36.465Z,57.96
2019-06-20T09:46:40.260Z,58.68
2019-06-20T09:48:44.043Z,58.52
2019-06-20T09:50:49.340Z,58.51
2019-06-20T09:52:54.799Z,57.52
2019-06-20T09:54:59.054Z,56.59
2019-06-20T09:57:02.781Z,56.74
2019-06-20T09:59:06.585Z,56.24
2019-06-20T10:01:10.477Z,55.95
2019-06-20T10:03:14.411Z,54.95
2019-06-20T10:05:19.522Z,55.06
2019-06-20T10:07:23.320Z,54.14
2019-06-20T10:09:27.111Z,54.07
2019-06-20T10:11:31.099Z,53.82
2019-06-20T10:13:35.132Z,53.90
2019-06-20T10:15:39.669Z,53.79
2019-06-20T10:17:43.432Z,52.75
2019-06-20T10:19:48.320Z,52.29
2019-06-20T10:21:52.095Z,52.10
2019-06-20T10:23:56.087Z,51.85
2019-06-20T10:25:59.822Z,52.10
2019-06-20T10:28:03.854Z,52.34
2019-06-20T10:30:14.268Z,51.83
2019-06-20T10:32:13.655Z,50.72
2019-06-20T10:34:17.445Z,51.56
2019-06-20T10:36:21.178Z,52.15
2019-06-20T10:38:25.104Z,52.69
2019-06-20T10:40:29.188Z,51.63
2019-06-20T10:42:32.892Z,50.39
2019-06-20T10:44:36.592Z,48.95
2019-06-20T10:46:40.463Z,49.05
2019-06-20T10:48:44.449Z,48.15
2019-06-20T10:50:49.801Z,47.60
2019-06-20T10:52:53.903Z,47.14
2019-06-20T10:54:57.652Z,47.26
2019-06-20T10:57:01.402Z,47.41
2019-06-20T10:59:05.551Z,46.93
2019-06-20T11:01:09.430Z,47.50
2019-06-20T11:03:13.141Z,47.79
2019-06-20T11:05:18.908Z,48.46
2019-06-20T11:07:22.814Z,48.55
2019-06-20T11:11:29.257Z,48.68
2019-06-20T11:13:33.063Z,48.14
2019-06-20T11:15:37.524Z,48.33
2019-06-20T11:17:44.050Z,47.87
2019-06-20T11:19:48.139Z,47.73
2019-06-20T11:21:51.856Z,46.77
2019-06-20T11:23:55.650Z,46.11
2019-06-20T11:25:59.561Z,46.36
2019-06-20T11:28:03.498Z,46.22
2019-06-20T11:30:09.715Z,45.88
2019-06-20T11:32:13.516Z,45.67
2019-06-20T11:34:17.417Z,45.65
2019-06-20T11:36:21.403Z,45.61
2019-06-20T11:38:25.222Z,46.08
2019-06-20T11:40:29.093Z,45.02
2019-06-20T11:42:32.975Z,44.73
2019-06-20T11:44:37.032Z,44.89
2019-06-20T11:46:40.860Z,45.33
2019-06-20T11:48:44.562Z,45.18
2019-06-20T11:50:48.619Z,43.89
2019-06-20T11:52:52.570Z,44.03
2019-06-20T11:54:56.286Z,44.48
2019-06-20T11:56:59.986Z,44.79
2019-06-20T11:59:03.769Z,44.10
2019-06-20T12:01:07.661Z,43.32
2019-06-20T12:03:11.485Z,42.65
2019-06-20T12:05:16.044Z,42.22
2019-06-20T12:07:19.946Z,41.26
2019-06-20T12:09:23.822Z,41.13
2019-06-20T12:11:27.540Z,41.18
2019-06-20T12:13:31.410Z,41.13
2019-06-20T12:15:35.460Z,40.96
2019-06-20T12:17:40.989Z,40.72
2019-06-20T12:19:44.763Z,39.11
2019-06-20T12:21:49.130Z,38.82
2019-06-20T12:23:52.992Z,38.90
2019-06-20T12:25:56.977Z,38.56
2019-06-20T12:28:00.772Z,37.57
2019-06-20T12:30:05.526Z,37.58
2019-06-20T12:32:10.088Z,37.74
2019-06-20T12:34:13.911Z,37.34
2019-06-20T12:36:17.628Z,37.04
2019-06-20T12:38:21.568Z,36.79
2019-06-20T12:40:25.587Z,36.04
2019-06-20T12:42:29.351Z,35.44
2019-06-20T12:44:33.243Z,34.83
2019-06-20T12:46:39.372Z,34.67
2019-06-20T12:48:42.831Z,34.84
2019-06-20T12:50:47.614Z,35.01
2019-06-20T12:52:51.356Z,34.61
2019-06-20T12:54:55.066Z,34.29
2019-06-20T12:56:58.993Z,34.53
2019-06-20T12:59:02.959Z,34.12
2019-06-20T13:01:06.859Z,33.76
2019-06-20T13:03:10.642Z,34.05
2019-06-20T13:05:16.447Z,34.44
2019-06-20T13:07:20.382Z,35.25
2019-06-20T13:09:24.089Z,35.13
2019-06-20T13:11:28.135Z,35.38
2019-06-20T13:13:31.841Z,35.44
2019-06-20T13:15:35.553Z,36.25
2019-06-20T13:17:41.127Z,36.95
2019-06-20T13:19:44.853Z,37.51
2019-06-20T13:21:48.679Z,37.15
2019-06-20T13:23:52.383Z,36.46
2019-06-20T13:25:56.099Z,36.58
2019-06-20T13:28:00.945Z,36.96
2019-06-20T13:30:05.814Z,37.41
2019-06-20T13:32:09.544Z,37.61
2019-06-20T13:34:13.309Z,37.93
2019-06-20T13:36:17.011Z,37.74
2019-06-20T13:38:20.911Z,38.06
2019-06-20T13:40:24.798Z,38.38
2019-06-20T13:42:28.608Z,38.72
2019-06-20T13:44:32.425Z,39.07
2019-06-20T13:46:36.200Z,38.69
2019-06-20T13:48:40.805Z,38.25
2019-06-20T13:50:45.551Z,38.19
2019-06-20T13:52:51.186Z,38.22
2019-06-20T13:54:54.802Z,38.24
2019-06-20T13:56:58.711Z,38.26
2019-06-20T13:59:02.463Z,38.36
2019-06-20T14:01:06.325Z,38.54
2019-06-20T14:03:10.162Z,38.57
2019-06-20T14:05:14.724Z,38.72
2019-06-20T14:07:18.481Z,38.42
2019-06-20T14:09:22.327Z,38.80
2019-06-20T14:11:26.030Z,39.09
2019-06-20T14:13:29.962Z,39.38
2019-06-20T14:15:33.944Z,39.61
2019-06-20T14:17:38.196Z,39.94
2019-06-20T14:19:42.189Z,39.97
2019-06-20T14:24:43.839Z,40.33
2019-06-20T14:26:48.873Z,40.71
2019-06-20T14:28:52.603Z,41.05
2019-06-20T14:30:57.667Z,41.46
2019-06-20T14:33:01.663Z,41.74
2019-06-20T14:35:05.664Z,41.89
2019-06-20T14:37:09.483Z,42.06
2019-06-20T14:39:13.335Z,42.19
2019-06-20T14:41:17.292Z,42.44
2019-06-20T14:43:21.022Z,42.90
2019-06-20T14:45:24.852Z,43.00
2019-06-20T14:47:28.830Z,43.16
2019-06-20T14:49:32.661Z,43.36
2019-06-20T14:51:36.556Z,43.41
2019-06-20T14:53:40.458Z,43.82
2019-06-20T14:55:44.779Z,43.93
2019-06-20T14:57:50.494Z,43.99
2019-06-20T14:59:54.460Z,44.19
2019-06-20T15:01:58.130Z,44.43
2019-06-20T15:04:02.168Z,44.71
2019-06-20T15:06:06.000Z,44.83
2019-06-20T15:08:09.814Z,45.00
2019-06-20T15:10:13.828Z,45.19
2019-06-20T15:12:17.694Z,45.43
2019-06-20T15:14:21.379Z,45.71
2019-06-20T15:16:25.168Z,45.86
2019-06-20T15:18:28.926Z,46.08
2019-06-20T15:20:32.637Z,46.21
2019-06-20T15:22:36.568Z,46.33
2019-06-20T15:24:40.564Z,46.46
2019-06-20T15:26:47.122Z,46.63
2019-06-20T15:28:51.822Z,46.87
2019-06-20T15:30:57.176Z,46.89
2019-06-20T15:33:09.712Z,46.96
2019-06-20T15:35:07.215Z,47.30
2019-06-20T15:37:11.033Z,47.46
2019-06-20T15:39:14.948Z,47.73
2019-06-20T15:41:18.991Z,47.82
2019-06-20T15:43:22.700Z,47.69
2019-06-20T15:45:26.461Z,47.70
2019-06-20T15:47:30.317Z,47.74
2019-06-20T15:49:34.072Z,47.62
2019-06-20T15:51:38.084Z,47.79
2019-06-20T15:53:41.788Z,47.97
2019-06-20T15:55:45.606Z,48.06
2019-06-20T15:57:49.464Z,48.11
2019-06-20T15:59:53.193Z,48.02
2019-06-20T16:01:56.934Z,48.14
2019-06-20T16:04:00.853Z,48.37
2019-06-20T16:06:04.877Z,48.36
2019-06-20T16:08:08.902Z,48.44
2019-06-20T16:10:13.995Z,48.55
2019-06-20T16:12:17.775Z,48.46
2019-06-20T16:14:21.564Z,47.48
2019-06-20T16:16:25.433Z,47.17
2019-06-20T16:18:29.149Z,47.07
2019-06-20T16:20:33.048Z,46.96
2019-06-20T16:22:36.830Z,46.62
2019-06-20T16:24:40.545Z,46.71
2019-06-20T16:26:44.332Z,46.59
2019-06-20T16:28:48.074Z,46.38
2019-06-20T16:31:07.664Z,46.25
2019-06-20T16:32:57.284Z,46.29
2019-06-20T16:35:01.186Z,46.21
2019-06-20T16:37:10.093Z,45.91
2019-06-20T16:39:10.655Z,45.81
2019-06-20T16:41:14.438Z,45.71
2019-06-20T16:43:18.151Z,45.81
2019-06-20T16:45:22.121Z,46.09
2019-06-20T16:47:26.036Z,46.21
2019-06-20T16:49:29.991Z,46.69
2019-06-20T16:51:33.840Z,47.21
2019-06-20T16:53:37.640Z,47.68
2019-06-20T16:55:41.493Z,48.04
2019-06-20T16:57:45.352Z,48.51
2019-06-20T16:59:49.311Z,48.87
2019-06-20T17:01:53.211Z,49.39
2019-06-20T17:03:57.133Z,49.75
2019-06-20T17:06:00.975Z,50.02
2019-06-20T17:08:05.105Z,50.03
2019-06-20T17:10:09.667Z,50.26
2019-06-20T17:12:13.635Z,50.36
2019-06-20T17:14:17.284Z,50.71
2019-06-20T17:16:21.181Z,50.93
2019-06-20T17:18:24.899Z,51.06
2019-06-20T17:20:28.856Z,51.18
2019-06-20T17:22:32.637Z,51.48
2019-06-20T17:24:36.431Z,51.72
2019-06-20T17:26:40.341Z,51.94
2019-06-20T17:28:44.169Z,51.99
2019-06-20T17:30:47.939Z,52.13
2019-06-20T17:32:51.827Z,52.23
2019-06-20T17:34:55.545Z,52.30
2019-06-20T17:36:59.263Z,52.15
2019-06-20T17:39:02.989Z,51.91
2019-06-20T17:41:06.761Z,52.13
2019-06-20T17:43:10.457Z,51.88
2019-06-20T17:45:15.424Z,51.93
2019-06-20T17:47:19.266Z,52.00
2019-06-20T17:49:23.171Z,51.88
2019-06-20T17:51:26.890Z,51.80
2019-06-20T17:53:30.606Z,51.70
2019-06-20T17:55:34.545Z,52.15
2019-06-20T17:57:38.347Z,52.17
2019-06-20T17:59:42.073Z,52.12
2019-06-20T18:01:45.802Z,52.26
2019-06-20T18:03:49.589Z,52.46
2019-06-20T18:05:53.307Z,52.54
2019-06-20T18:07:57.089Z,52.78
2019-06-20T18:10:00.799Z,52.97
2019-06-20T18:12:04.881Z,53.00
2019-06-20T18:14:08.764Z,52.89
2019-06-20T18:16:24.493Z,53.21
2019-06-20T18:18:18.018Z,53.63
2019-06-20T18:20:22.176Z,54.16
2019-06-20T18:22:26.064Z,54.38
2019-06-20T18:24:29.955Z,54.74
2019-06-20T18:26:33.748Z,55.25
2019-06-20T18:28:37.452Z,55.50
2019-06-20T18:30:43.009Z,55.76
2019-06-20T18:32:46.826Z,55.68
2019-06-20T18:35:01.445Z,55.77
2019-06-20T18:36:56.135Z,55.99
2019-06-20T18:38:59.839Z,56.20
2019-06-20T18:41:03.747Z,56.41
2019-06-20T18:43:07.542Z,56.76
2019-06-20T18:45:11.733Z,57.02
2019-06-20T18:47:15.519Z,57.31
2019-06-20T18:49:19.259Z,57.46
2019-06-20T18:51:23.200Z,57.67
2019-06-20T18:53:27.068Z,57.62
2019-06-20T18:55:30.783Z,57.67
2019-06-20T18:57:34.571Z,57.75
2019-06-20T18:59:38.381Z,58.02
2019-06-20T19:01:42.097Z,58.10
2019-06-20T19:03:45.863Z,58.30
2019-06-20T19:05:49.531Z,58.47
2019-06-20T19:07:53.274Z,58.95
2019-06-20T19:09:57.429Z,59.26
2019-06-20T19:12:01.199Z,59.45
2019-06-20T19:14:05.078Z,59.51
2019-06-20T19:16:08.854Z,59.80
2019-06-20T19:18:13.144Z,60.16
2019-06-20T19:20:17.456Z,60.34
2019-06-20T19:22:21.353Z,60.49
2019-06-20T19:24:25.106Z,60.91
2019-06-20T19:26:28.747Z,60.86
2019-06-20T19:28:32.726Z,61.12
2019-06-20T19:30:50.249Z,61.15
2019-06-20T19:32:54.165Z,61.25
2019-06-20T19:35:02.216Z,61.22
2019-06-20T19:37:03.506Z,61.26
2019-06-20T19:39:07.903Z,61.40
2019-06-20T19:41:11.615Z,61.45
2019-06-20T19:43:15.323Z,61.60
2019-06-20T19:45:19.382Z,61.75
2019-06-20T19:47:23.290Z,61.78
2019-06-20T19:49:27.057Z,61.83
2019-06-20T19:51:30.885Z,61.82
2019-06-20T19:53:34.711Z,61.61
2019-06-20T19:55:38.894Z,61.52
2019-06-20T19:57:42.657Z,61.44
2019-06-20T19:59:46.643Z,61.44
2019-06-20T20:01:50.614Z,61.32
2019-06-20T20:03:54.567Z,61.45
2019-06-20T20:05:58.658Z,61.56
2019-06-20T20:08:02.756Z,61.63
2019-06-20T20:10:07.315Z,61.84
2019-06-20T20:12:11.105Z,61.93
2019-06-20T20:14:14.843Z,62.01
2019-06-20T20:16:18.535Z,61.82
2019-06-20T20:18:22.337Z,61.99
2019-06-20T20:20:26.040Z,62.17
2019-06-20T20:22:29.759Z,62.31
2019-06-20T20:24:33.471Z,62.56
2019-06-20T20:26:37.257Z,62.50
2019-06-20T20:28:40.994Z,62.75
2019-06-20T20:30:45.065Z,62.94
2019-06-20T20:32:48.834Z,63.12
2019-06-20T20:34:52.724Z,63.18
2019-06-20T20:36:56.439Z,63.49
2019-06-20T20:39:00.184Z,63.54
2019-06-20T20:41:04.025Z,63.75
2019-06-20T20:43:08.002Z,63.96
2019-06-20T20:45:12.384Z,64.01
2019-06-20T20:47:16.236Z,64.12
2019-06-20T20:49:20.085Z,64.46
2019-06-20T20:51:23.850Z,64.32
2019-06-20T20:53:27.756Z,64.35
2019-06-20T20:55:31.483Z,64.51
2019-06-20T20:57:35.357Z,64.45
2019-06-20T20:59:39.250Z,64.41
2019-06-20T21:01:43.067Z,64.48
2019-06-20T21:03:47.067Z,64.37
2019-06-20T21:05:51.973Z,64.26
2019-06-20T21:07:55.760Z,64.20
2019-06-20T21:09:59.488Z,63.97
2019-06-20T21:12:03.284Z,63.94
2019-06-20T21:14:07.180Z,64.21
2019-06-20T21:16:11.109Z,64.49
2019-06-20T21:18:14.948Z,64.51
2019-06-20T21:20:19.319Z,64.71
2019-06-20T21:22:23.142Z,64.81
2019-06-20T21:24:26.852Z,64.89
2019-06-20T21:26:30.764Z,64.89
2019-06-20T21:28:34.726Z,64.89
2019-06-20T21:30:38.655Z,65.02
2019-06-20T21:32:42.533Z,65.05
2019-06-20T21:34:46.396Z,65.20
2019-06-20T21:36:50.262Z,65.32
2019-06-20T21:38:54.241Z,65.65
2019-06-20T21:40:58.165Z,65.93
2019-06-20T21:43:04.092Z,65.98
2019-06-20T21:45:08.621Z,66.08
2019-06-20T21:47:12.455Z,65.94
2019-06-20T21:49:16.368Z,65.92
2019-06-20T21:51:20.260Z,65.91
2019-06-20T21:53:24.299Z,66.02
2019-06-20T21:55:28.157Z,66.14
2019-06-20T21:57:31.964Z,66.27
2019-06-20T21:59:37.734Z,66.30
2019-06-20T22:01:41.779Z,66.50
2019-06-20T22:03:45.621Z,66.35
2019-06-20T22:05:49.525Z,66.25
2019-06-20T22:07:53.348Z,66.28
2019-06-20T22:09:57.249Z,66.20
2019-06-20T22:12:01.171Z,66.18
2019-06-20T22:14:05.401Z,66.26
2019-06-20T22:16:09.194Z,66.28
2019-06-20T22:18:13.218Z,66.28
2019-06-20T22:20:17.531Z,66.23
2019-06-20T22:22:21.360Z,66.29
2019-06-20T22:24:25.191Z,66.19
2019-06-20T22:26:29.121Z,66.24
2019-06-20T22:28:33.071Z,66.15
2019-06-20T22:30:43.249Z,66.12
2019-06-20T22:32:47.148Z,66.15
2019-06-20T22:34:51.083Z,66.61
2019-06-20T22:36:55.131Z,66.61
2019-06-20T22:38:58.891Z,66.54
2019-06-20T22:41:02.795Z,66.56
2019-06-20T22:43:06.776Z,66.66
2019-06-20T22:45:11.946Z,66.84
2019-06-20T22:47:15.714Z,66.83
2019-06-20T22:49:19.776Z,66.89
2019-06-20T22:51:23.612Z,67.35
2019-06-20T22:53:27.492Z,67.20
2019-06-20T22:55:31.485Z,67.20
2019-06-20T22:57:35.225Z,67.70
2019-06-20T22:59:39.120Z,68.25
2019-06-20T23:01:45.655Z,68.25
2019-06-20T23:03:50.441Z,68.33
2019-06-20T23:05:54.407Z,68.37
2019-06-20T23:07:58.301Z,68.35
2019-06-20T23:10:10.305Z,68.40
2019-06-20T23:12:08.133Z,68.43
2019-06-20T23:14:11.987Z,68.45
2019-06-20T23:16:15.987Z,68.39
2019-06-20T23:18:19.898Z,68.39
2019-06-20T23:20:23.882Z,68.40
2019-06-20T23:22:27.686Z,68.60
2019-06-20T23:24:31.516Z,68.50
2019-06-20T23:26:35.242Z,68.59
2019-06-20T23:28:39.199Z,68.61
2019-06-20T23:30:43.033Z,68.75
2019-06-20T23:32:47.008Z,68.70
2019-06-20T23:34:50.837Z,69.06
2019-06-20T23:36:54.819Z,69.06
2019-06-20T23:38:58.662Z,69.25
2019-06-20T23:41:02.665Z,69.37
2019-06-20T23:43:06.546Z,69.07
2019-06-20T23:45:10.815Z,69.21
2019-06-20T23:47:14.691Z,69.11
2019-06-20T23:49:18.650Z,68.98
2019-06-20T23:51:25.591Z,69.01
2019-06-20T23:53:29.281Z,69.17
2019-06-20T23:55:33.263Z,69.46
2019-06-20T23:57:37.089Z,69.64
2019-06-20T23:59:41.040Z,69.46
